Time;durP1;ratioP1;P1;durP2;ratioP2;P2;SDS_P1;SDS_P2;PMS_P1;PMS_P2;Temp;Humidity;BMP_temperature;BMP_pressure;BME280_temperature;BME280_humidity;BME280_pressure;Samples;Min_cycle;Max_cycle;Signal;HPM_P1;HPM_P2
2023/08/07 00:02:04;;;;;;;3.97;1.67;;;15.30;99.90;;;;;;5104172;28;20523;-60
2023/08/07 00:04:30;;;;;;;4.28;2.20;;;15.30;99.90;;;;;;5087512;28;20083;-59
2023/08/07 00:06:55;;;;;;;2.47;2.28;;;15.30;99.90;;;;;;5057378;28;20807;-58
2023/08/07 00:09:21;;;;;;;3.70;2.25;;;15.30;99.90;;;;;;5064412;28;20052;-58
2023/08/07 00:11:47;;;;;;;4.53;2.00;;;15.30;99.90;;;;;;5084211;28;20197;-58
2023/08/07 00:14:12;;;;;;;3.38;2.30;;;15.30;99.90;;;;;;5094801;28;20181;-59
2023/08/07 00:16:38;;;;;;;3.00;1.80;;;15.30;99.90;;;;;;5094312;28;20187;-59
2023/08/07 00:19:04;;;;;;;4.22;1.83;;;15.30;99.90;;;;;;5096479;28;20068;-58
2023/08/07 00:21:29;;;;;;;4.25;1.83;;;15.30;99.90;;;;;;5081292;28;20063;-58
2023/08/07 00:23:55;;;;;;;2.35;1.60;;;15.30;99.90;;;;;;5066585;28;20111;-59
2023/08/07 00:26:21;;;;;;;3.90;2.40;;;15.30;99.90;;;;;;5060111;28;20055;-60
2023/08/07 00:28:46;;;;;;;2.10;1.60;;;15.30;99.90;;;;;;5085689;28;20050;-62
2023/08/07 00:31:12;;;;;;;2.80;2.05;;;15.30;99.90;;;;;;5082394;28;20059;-60
2023/08/07 00:33:38;;;;;;;3.28;1.65;;;15.30;99.90;;;;;;5090660;28;20052;-60
2023/08/07 00:36:04;;;;;;;2.00;1.80;;;15.30;99.90;;;;;;5091593;28;20063;-58
2023/08/07 00:38:30;;;;;;;2.92;2.20;;;15.30;99.90;;;;;;5082030;28;20128;-59
2023/08/07 00:40:55;;;;;;;4.00;1.88;;;15.40;99.90;;;;;;5095377;28;20055;-59
2023/08/07 00:43:21;;;;;;;5.63;2.33;;;15.40;99.90;;;;;;5074137;28;20060;-60
2023/08/07 00:45:47;;;;;;;4.78;2.78;;;15.40;99.90;;;;;;5065436;28;20056;-58
2023/08/07 00:48:16;;;;;;;10.80;2.53;;;15.40;99.90;;;;;;5094109;28;20528;-57
2023/08/07 00:50:43;;;;;;;6.22;2.50;;;15.30;99.90;;;;;;5105669;27;20539;-59
2023/08/07 00:53:13;;;;;;;5.35;3.03;;;15.30;99.90;;;;;;5095643;28;20105;-58
2023/08/07 00:55:39;;;;;;;4.65;2.58;;;15.30;99.90;;;;;;5070083;28;20464;-58
2023/08/07 00:58:04;;;;;;;4.68;2.78;;;15.30;99.90;;;;;;5082763;28;20056;-60
2023/08/07 01:00:30;;;;;;;8.25;2.83;;;15.30;99.90;;;;;;5080168;28;20059;-59
2023/08/07 01:02:56;;;;;;;2.78;2.30;;;15.30;99.90;;;;;;5082928;28;20052;-59
2023/08/07 01:05:25;;;;;;;4.30;2.15;;;15.30;99.90;;;;;;5088735;28;20089;-58
2023/08/07 01:07:54;;;;;;;3.78;2.90;;;15.20;99.90;;;;;;5085416;28;20116;-59
2023/08/07 01:10:44;;;;;;;3.70;2.40;;;15.20;99.90;;;;;;5089201;27;20050;-59
2023/08/07 01:13:30;;;;;;;3.13;2.83;;;15.20;99.90;;;;;;5091324;28;20052;-59
2023/08/07 01:16:01;;;;;;;2.90;2.60;;;15.20;99.90;;;;;;5081921;28;20052;-58
2023/08/07 01:18:28;;;;;;;5.15;3.22;;;15.20;99.90;;;;;;5092386;28;20063;-57
2023/08/07 01:20:54;;;;;;;4.93;2.42;;;15.20;99.90;;;;;;5072602;28;20056;-59
2023/08/07 01:23:19;;;;;;;7.07;2.47;;;15.10;99.90;;;;;;5073496;28;20063;-58
2023/08/07 01:25:46;;;;;;;6.07;2.42;;;15.20;99.90;;;;;;5075775;28;20067;-58
2023/08/07 01:28:24;;;;;;;5.65;2.70;;;15.10;99.90;;;;;;5101433;28;20402;-54
2023/08/07 01:30:58;;;;;;;4.72;1.88;;;15.10;99.90;;;;;;5089085;28;20120;-58
2023/08/07 01:33:34;;;;;;;3.47;1.75;;;15.00;99.90;;;;;;5074823;28;20471;-57
2023/08/07 01:36:05;;;;;;;2.70;1.70;;;15.00;99.90;;;;;;5077233;28;20060;-59
2023/08/07 01:38:31;;;;;;;4.18;2.08;;;15.50;99.90;;;;;;5090623;28;20147;-59
2023/08/07 01:40:58;;;;;;;3.10;2.03;;;14.90;99.90;;;;;;5080637;28;20086;-59
2023/08/07 01:43:24;;;;;;;5.60;2.08;;;14.90;99.90;;;;;;5094645;27;20055;-58
2023/08/07 01:45:49;;;;;;;2.97;1.83;;;14.80;99.90;;;;;;5100402;27;20052;-58
2023/08/07 01:48:15;;;;;;;5.60;2.25;;;14.70;99.90;;;;;;5083371;28;20056;-59
2023/08/07 01:50:41;;;;;;;2.58;1.63;;;14.70;99.90;;;;;;5067544;28;20142;-58
2023/08/07 01:53:07;;;;;;;3.40;1.98;;;14.70;99.90;;;;;;5084341;28;20485;-58
2023/08/07 01:55:32;;;;;;;3.58;1.67;;;14.60;99.90;;;;;;5091223;28;20064;-60
2023/08/07 01:57:58;;;;;;;3.58;2.15;;;14.60;99.90;;;;;;5103007;27;20047;-63
2023/08/07 02:00:24;;;;;;;6.75;2.47;;;14.50;99.90;;;;;;5095898;28;20056;-62
2023/08/07 02:02:49;;;;;;;4.35;2.58;;;14.50;99.90;;;;;;5095378;28;20051;-60
2023/08/07 02:05:15;;;;;;;4.93;1.90;;;14.40;99.90;;;;;;5094319;27;20343;-59
2023/08/07 02:09:52;;;;;;;4.50;1.98;;;14.40;99.90;;;;;;5104005;27;20599;-58
2023/08/07 02:12:17;;;;;;;4.72;1.98;;;14.40;99.90;;;;;;5119288;28;20166;-57
2023/08/07 02:14:43;;;;;;;3.55;2.22;;;14.30;99.90;;;;;;5115062;28;20055;-58
2023/08/07 02:17:09;;;;;;;3.13;2.15;;;14.30;99.90;;;;;;5117889;28;20208;-58
2023/08/07 02:19:34;;;;;;;3.00;2.03;;;14.30;99.90;;;;;;5114576;28;20056;-58
2023/08/07 02:22:01;;;;;;;5.88;2.45;;;14.30;99.90;;;;;;5119229;28;20054;-62
2023/08/07 02:24:27;;;;;;;2.15;1.60;;;14.30;99.90;;;;;;5098244;28;20068;-59
2023/08/07 02:26:53;;;;;;;3.50;1.90;;;14.30;99.90;;;;;;5117870;28;20059;-62
2023/08/07 02:31:44;;;;;;;2.75;1.83;;;14.20;99.90;;;;;;5116092;28;20051;-58
2023/08/07 02:34:10;;;;;;;3.83;1.98;;;14.20;99.90;;;;;;5119110;28;20055;-60
2023/08/07 02:36:35;;;;;;;3.20;2.35;;;14.30;99.90;;;;;;5102363;27;20071;-60
2023/08/07 02:39:01;;;;;;;4.30;2.20;;;14.20;99.90;;;;;;5139000;27;20047;-57
2023/08/07 02:41:27;;;;;;;3.75;1.73;;;14.20;99.90;;;;;;5118635;27;20511;-61
2023/08/07 02:43:53;;;;;;;4.38;1.70;;;14.20;99.90;;;;;;5104018;27;21133;-59
2023/08/07 02:46:23;;;;;;;3.00;1.50;;;14.20;99.90;;;;;;5139222;27;20123;-61
2023/08/07 02:48:48;;;;;;;13.50;2.42;;;14.20;99.90;;;;;;5121106;27;20108;-58
2023/08/07 02:51:14;;;;;;;4.38;2.17;;;14.20;99.90;;;;;;5117372;27;20466;-58
2023/08/07 02:53:40;;;;;;;4.78;2.03;;;14.20;99.90;;;;;;5135607;27;20059;-58
2023/08/07 02:56:05;;;;;;;11.90;2.20;;;14.30;99.90;;;;;;5138989;27;20054;-58
2023/08/07 02:58:31;;;;;;;5.60;2.40;;;14.30;99.90;;;;;;5136591;27;20415;-58
2023/08/07 03:01:02;;;;;;;11.25;2.17;;;14.30;99.90;;;;;;5117045;27;20097;-58
2023/08/07 03:03:28;;;;;;;6.35;2.83;;;14.30;99.90;;;;;;5124320;27;20055;-57
2023/08/07 03:05:53;;;;;;;6.03;2.95;;;14.30;99.90;;;;;;5138499;27;20057;-58
2023/08/07 03:08:22;;;;;;;11.10;2.40;;;14.30;99.90;;;;;;5138488;27;20051;-58
2023/08/07 03:10:55;;;;;;;6.47;3.05;;;14.30;99.90;;;;;;5136182;27;20054;-59
2023/08/07 03:13:25;;;;;;;6.60;2.25;;;14.30;99.90;;;;;;5138898;27;20123;-57
2023/08/07 03:15:59;;;;;;;4.40;2.10;;;14.30;99.90;;;;;;5102434;27;20055;-58
2023/08/07 03:18:25;;;;;;;7.63;2.25;;;14.30;99.90;;;;;;5119026;27;20509;-58
2023/08/07 03:20:50;;;;;;;2.03;1.35;;;14.30;99.90;;;;;;5100490;27;20108;-58
2023/08/07 03:23:16;;;;;;;4.72;2.45;;;14.30;99.90;;;;;;5103176;28;20055;-56
2023/08/07 03:25:42;;;;;;;6.82;2.08;;;14.30;99.90;;;;;;5121035;27;21552;-58
2023/08/07 03:28:07;;;;;;;9.50;2.28;;;14.30;99.90;;;;;;5124138;27;20054;-58
2023/08/07 03:30:33;;;;;;;3.90;1.95;;;14.40;99.90;;;;;;5118105;27;20595;-57
2023/08/07 03:32:59;;;;;;;7.70;1.98;;;14.40;99.90;;;;;;5111098;27;20050;-58
2023/08/07 03:35:25;;;;;;;6.50;2.53;;;14.40;99.90;;;;;;5123488;27;20066;-57
2023/08/07 03:37:50;;;;;;;8.15;1.98;;;14.40;99.90;;;;;;5120144;27;20494;-56
2023/08/07 03:40:16;;;;;;;4.47;2.38;;;14.40;99.90;;;;;;5124482;27;20055;-57
2023/08/07 03:42:41;;;;;;;9.63;2.50;;;14.20;99.90;;;;;;5120577;27;20798;-57
2023/08/07 03:45:08;;;;;;;7.18;2.20;;;13.50;99.90;;;;;;5124017;27;20468;-56
2023/08/07 03:47:33;;;;;;;7.85;3.40;;;14.30;99.90;;;;;;5101373;27;20109;-56
2023/08/07 03:49:59;;;;;;;11.38;3.70;;;14.40;99.90;;;;;;5101915;28;20068;-56
2023/08/07 03:52:25;;;;;;;6.28;2.63;;;14.40;99.90;;;;;;5110951;27;20154;-58
2023/08/07 03:54:50;;;;;;;8.45;2.95;;;14.40;99.90;;;;;;5116670;27;20070;-57
2023/08/07 03:57:16;;;;;;;10.88;2.80;;;14.40;99.90;;;;;;5121350;27;20051;-57
2023/08/07 03:59:42;;;;;;;7.78;2.60;;;14.40;99.90;;;;;;5118288;27;20643;-57
2023/08/07 04:02:07;;;;;;;5.93;2.70;;;14.40;99.90;;;;;;5116726;27;20125;-59
2023/08/07 04:04:33;;;;;;;5.38;2.28;;;14.40;99.90;;;;;;5124647;27;20527;-57
2023/08/07 04:06:59;;;;;;;4.00;1.85;;;14.40;99.90;;;;;;5125048;27;20054;-59
2023/08/07 04:09:24;;;;;;;7.35;2.95;;;14.40;99.90;;;;;;5101340;27;20059;-57
2023/08/07 04:11:50;;;;;;;5.20;2.20;;;14.50;99.90;;;;;;5108462;27;20777;-57
2023/08/07 04:14:16;;;;;;;5.50;2.28;;;14.50;99.90;;;;;;5126134;27;20161;-57
2023/08/07 04:16:41;;;;;;;8.13;2.47;;;14.60;99.90;;;;;;5119917;27;20446;-57
2023/08/07 04:19:07;;;;;;;7.80;2.25;;;14.60;99.90;;;;;;5113002;27;20131;-61
2023/08/07 04:21:33;;;;;;;8.43;2.03;;;14.50;99.90;;;;;;5125557;27;20055;-58
2023/08/07 04:24:00;;;;;;;3.83;1.35;;;14.50;99.90;;;;;;5125922;27;20055;-60
2023/08/07 04:26:26;;;;;;;3.95;2.05;;;14.50;99.90;;;;;;5127121;27;20058;-58
2023/08/07 04:28:52;;;;;;;8.32;2.10;;;14.50;99.90;;;;;;5111586;27;20083;-61
2023/08/07 04:31:17;;;;;;;5.35;2.17;;;14.50;99.90;;;;;;5115670;27;20588;-58
2023/08/07 04:33:43;;;;;;;8.38;3.10;;;14.50;99.90;;;;;;5122415;27;20516;-58
2023/08/07 04:36:09;;;;;;;12.02;2.30;;;14.50;99.90;;;;;;5127149;27;20653;-58
2023/08/07 04:38:35;;;;;;;5.60;3.05;;;14.50;99.90;;;;;;5125556;27;20632;-57
2023/08/07 04:41:00;;;;;;;6.93;2.85;;;14.50;99.90;;;;;;5126350;27;20078;-57
2023/08/07 04:43:27;;;;;;;6.05;2.25;;;14.60;99.90;;;;;;5126562;27;20560;-58
2023/08/07 04:45:53;;;;;;;15.50;4.63;;;14.50;99.90;;;;;;5102114;27;20568;-57
2023/08/07 04:48:25;;;;;;;8.95;2.10;;;14.50;99.90;;;;;;5121754;27;20522;-62
2023/08/07 04:50:51;;;;;;;6.25;2.53;;;14.60;99.90;;;;;;5109929;27;20057;-57
2023/08/07 04:53:16;;;;;;;7.53;2.22;;;14.60;99.90;;;;;;5110495;27;20056;-58
2023/08/07 04:55:42;;;;;;;9.27;2.72;;;14.60;99.90;;;;;;5118385;27;20047;-58
2023/08/07 04:58:08;;;;;;;9.35;2.67;;;14.60;99.90;;;;;;5100396;27;20056;-58
2023/08/07 05:00:34;;;;;;;10.45;3.65;;;14.60;99.90;;;;;;5117652;27;20497;-59
2023/08/07 05:03:01;;;;;;;9.52;2.42;;;14.70;99.90;;;;;;5101702;27;20056;-59
2023/08/07 05:05:27;;;;;;;7.60;2.63;;;14.80;99.90;;;;;;5112208;27;20489;-61
2023/08/07 05:07:55;;;;;;;9.65;3.17;;;14.80;99.90;;;;;;5114577;27;20586;-64
2023/08/07 05:10:24;;;;;;;6.85;3.05;;;14.70;99.90;;;;;;5100895;27;20083;-64
2023/08/07 05:12:55;;;;;;;10.13;3.50;;;14.70;99.90;;;;;;5114603;27;20194;-57
2023/08/07 05:15:25;;;;;;;11.82;2.30;;;14.70;99.90;;;;;;5115953;27;20184;-59
2023/08/07 05:17:52;;;;;;;7.30;2.38;;;14.70;99.90;;;;;;5102626;27;20055;-61
2023/08/07 05:20:18;;;;;;;9.18;2.90;;;14.80;99.90;;;;;;5107981;27;20059;-59
2023/08/07 05:22:44;;;;;;;12.95;2.90;;;14.80;99.90;;;;;;5116706;27;20108;-61
2023/08/07 05:25:11;;;;;;;11.82;3.75;;;14.90;99.90;;;;;;5119721;27;20051;-63
2023/08/07 05:27:37;;;;;;;17.23;3.13;;;15.00;99.90;;;;;;5113621;27;20061;-64
2023/08/07 05:30:03;;;;;;;12.68;3.50;;;15.10;99.90;;;;;;5115482;27;20449;-57
2023/08/07 05:32:29;;;;;;;6.60;2.50;;;15.20;99.90;;;;;;5110502;27;20073;-56
2023/08/07 05:34:55;;;;;;;9.05;3.15;;;15.30;99.90;;;;;;5103818;27;20528;-59
2023/08/07 05:37:24;;;;;;;9.43;3.90;;;15.30;99.90;;;;;;5112346;27;20062;-59
2023/08/07 05:39:50;;;;;;;9.90;3.92;;;15.40;99.90;;;;;;5115488;27;20062;-58
2023/08/07 05:42:16;;;;;;;9.48;2.70;;;15.30;99.90;;;;;;5114829;27;20060;-57
2023/08/07 05:44:41;;;;;;;8.63;2.70;;;15.30;99.90;;;;;;5109788;27;20059;-57
2023/08/07 05:47:07;;;;;;;10.90;4.22;;;15.30;99.90;;;;;;5117202;27;20039;-57
2023/08/07 05:49:33;;;;;;;10.15;2.25;;;15.30;99.90;;;;;;5111891;27;20718;-58
2023/08/07 05:51:58;;;;;;;13.00;2.88;;;15.30;99.90;;;;;;5112060;27;20059;-57
2023/08/07 05:54:24;;;;;;;6.32;2.95;;;15.40;99.90;;;;;;5112427;27;20079;-56
2023/08/07 05:56:50;;;;;;;17.52;4.00;;;15.50;99.90;;;;;;5114211;27;20078;-59
2023/08/07 05:59:15;;;;;;;12.43;3.67;;;15.70;99.90;;;;;;5117570;27;20074;-57
2023/08/07 06:01:41;;;;;;;6.68;3.28;;;15.80;99.90;;;;;;5114947;27;20073;-57
2023/08/07 06:04:07;;;;;;;13.95;3.85;;;15.90;99.90;;;;;;5094092;28;20055;-57
2023/08/07 06:06:35;;;;;;;12.90;3.38;;;16.10;99.90;;;;;;5094255;28;20063;-58
2023/08/07 06:09:04;;;;;;;15.05;3.85;;;16.40;99.90;;;;;;5105572;27;20124;-59
2023/08/07 06:11:30;;;;;;;14.27;3.30;;;16.20;99.90;;;;;;5112259;27;20055;-57
2023/08/07 06:13:55;;;;;;;7.93;2.67;;;16.00;99.90;;;;;;5113317;27;20474;-57
2023/08/07 06:16:24;;;;;;;14.23;3.72;;;15.80;99.90;;;;;;5117542;27;20061;-58
2023/08/07 06:18:50;;;;;;;8.57;2.70;;;15.50;99.90;;;;;;5092088;28;21971;-57
2023/08/07 06:21:16;;;;;;;11.18;3.35;;;15.30;99.90;;;;;;5111986;27;20120;-58
2023/08/07 06:23:42;;;;;;;10.53;2.67;;;15.30;99.90;;;;;;5073391;27;1098408;-57
2023/08/07 06:26:08;;;;;;;7.30;2.15;;;15.30;99.90;;;;;;5097284;28;20108;-58
2023/08/07 06:28:36;;;;;;;10.13;2.88;;;15.40;99.90;;;;;;5106935;27;20055;-57
2023/08/07 06:31:09;;;;;;;4.90;2.25;;;15.50;99.90;;;;;;5090272;28;20055;-57
2023/08/07 06:33:36;;;;;;;12.00;3.00;;;15.60;99.90;;;;;;5108319;27;20055;-57
2023/08/07 06:36:03;;;;;;;6.35;2.50;;;15.60;99.90;;;;;;5087644;28;20083;-56
2023/08/07 06:38:29;;;;;;;11.50;3.15;;;15.70;99.90;;;;;;5112289;27;20381;-59
2023/08/07 06:40:56;;;;;;;6.20;2.20;;;15.80;99.90;;;;;;5119669;27;20063;-59
2023/08/07 06:43:23;;;;;;;6.43;2.53;;;15.80;99.90;;;;;;5117594;27;20076;-58
2023/08/07 06:45:54;;;;;;;10.25;3.25;;;15.90;99.90;;;;;;5117652;27;20069;-60
2023/08/07 06:48:23;;;;;;;4.00;1.88;;;15.90;99.90;;;;;;5117862;27;20061;-58
2023/08/07 06:50:50;;;;;;;9.50;2.30;;;15.90;99.90;;;;;;5113962;27;20087;-59
2023/08/07 06:53:16;;;;;;;5.43;2.17;;;16.20;99.90;;;;;;5114973;28;20119;-59
2023/08/07 06:55:42;;;;;;;10.65;2.70;;;16.60;99.90;;;;;;5114980;27;20070;-58
2023/08/07 06:58:08;;;;;;;5.88;2.15;;;16.60;99.90;;;;;;5117265;27;20051;-57
2023/08/07 07:00:35;;;;;;;5.90;1.52;;;16.20;99.90;;;;;;5112521;27;20559;-59
2023/08/07 07:03:01;;;;;;;13.15;2.85;;;15.80;99.90;;;;;;5121226;27;20062;-57
2023/08/07 07:05:27;;;;;;;9.48;2.92;;;15.60;99.90;;;;;;5113600;27;20056;-57
2023/08/07 07:07:54;;;;;;;7.80;3.03;;;15.60;99.90;;;;;;5100942;27;20054;-58
2023/08/07 07:10:23;;;;;;;7.93;2.33;;;15.60;99.90;;;;;;5118257;27;20603;-58
2023/08/07 07:12:48;;;;;;;13.02;2.60;;;15.70;99.90;;;;;;5112008;27;20051;-56
2023/08/07 07:15:15;;;;;;;6.60;2.35;;;15.70;99.90;;;;;;5119328;27;20066;-56
2023/08/07 07:17:40;;;;;;;12.90;2.63;;;15.10;99.90;;;;;;5092171;27;20047;-57
2023/08/07 07:20:09;;;;;;;11.35;3.30;;;15.80;99.90;;;;;;5117699;27;20052;-58
2023/08/07 07:22:35;;;;;;;12.23;2.70;;;15.80;99.90;;;;;;5122940;27;20050;-59
2023/08/07 07:25:01;;;;;;;8.98;2.85;;;16.00;99.90;;;;;;5124177;27;20101;-59
2023/08/07 07:27:27;;;;;;;8.95;2.40;;;16.00;99.90;;;;;;5124684;27;20059;-57
2023/08/07 07:29:52;;;;;;;14.68;3.25;;;15.90;99.90;;;;;;5122102;27;20058;-58
2023/08/07 07:34:44;;;;;;;10.65;2.67;;;15.90;99.90;;;;;;5119393;27;20117;-59
2023/08/07 07:37:10;;;;;;;8.25;2.30;;;16.10;99.90;;;;;;5127671;27;20066;-59
2023/08/07 07:39:36;;;;;;;9.30;2.00;;;16.10;99.90;;;;;;5119165;27;20503;-64
2023/08/07 07:42:03;;;;;;;7.65;2.20;;;16.20;99.90;;;;;;5116462;27;20159;-62
2023/08/07 07:44:29;;;;;;;7.25;2.53;;;16.30;99.90;;;;;;5115902;27;20562;-56
2023/08/07 07:46:54;;;;;;;8.15;2.15;;;16.60;99.90;;;;;;5078079;28;20055;-61
2023/08/07 07:51:49;;;;;;;13.32;3.42;;;17.50;99.90;;;;;;5114128;27;20074;-57
2023/08/07 07:54:15;;;;;;;14.02;2.50;;;17.70;99.90;;;;;;5095836;28;20424;-59
2023/08/07 07:56:44;;;;;;;12.35;3.55;;;17.70;99.90;;;;;;5113504;27;20059;-58
2023/08/07 07:59:10;;;;;;;7.65;3.58;;;17.90;99.90;;;;;;5118044;27;20061;-57
2023/08/07 08:01:36;;;;;;;7.60;2.42;;;18.00;99.90;;;;;;5112231;27;20055;-57
2023/08/07 08:04:01;;;;;;;7.82;2.10;;;17.80;99.90;;;;;;5120494;27;20145;-57
2023/08/07 08:06:27;;;;;;;8.35;2.88;;;18.40;99.90;;;;;;5113036;27;20078;-58
2023/08/07 08:08:53;;;;;;;7.75;3.15;;;17.90;99.90;;;;;;5114002;27;20066;-57
2023/08/07 08:11:18;;;;;;;13.30;2.53;;;17.80;99.90;;;;;;5095858;28;20047;-57
2023/08/07 08:13:44;;;;;;;7.80;2.63;;;17.70;99.90;;;;;;5101119;27;20057;-58
2023/08/07 08:16:10;;;;;;;5.10;2.33;;;17.40;99.90;;;;;;5116093;27;20057;-57
2023/08/07 08:18:35;;;;;;;8.73;2.88;;;17.10;99.90;;;;;;5116015;27;20058;-57
2023/08/07 08:21:01;;;;;;;10.52;2.83;;;16.60;99.90;;;;;;5108549;27;20047;-64
2023/08/07 08:23:27;;;;;;;11.73;2.55;;;16.50;99.90;;;;;;5119314;27;20086;-58
2023/08/07 08:25:52;;;;;;;8.48;2.25;;;16.50;99.90;;;;;;5120216;27;20058;-62
2023/08/07 08:28:18;;;;;;;4.80;1.90;;;16.50;99.90;;;;;;5101644;27;20055;-58
2023/08/07 08:30:44;;;;;;;9.60;2.63;;;16.40;99.90;;;;;;5119761;27;21649;-63
2023/08/07 08:33:12;;;;;;;8.82;2.90;;;16.60;99.90;;;;;;5124609;27;20055;-64
2023/08/07 08:35:38;;;;;;;3.88;1.98;;;16.60;99.90;;;;;;5100965;27;20052;-57
2023/08/07 08:38:04;;;;;;;7.03;2.83;;;16.60;99.90;;;;;;5118878;27;20072;-57
2023/08/07 08:40:34;;;;;;;10.02;3.15;;;16.50;99.90;;;;;;5121699;27;20825;-57
2023/08/07 08:43:00;;;;;;;7.47;2.67;;;16.40;99.90;;;;;;5118910;27;20059;-57
2023/08/07 08:45:27;;;;;;;10.52;2.85;;;17.40;99.90;;;;;;5124776;27;20050;-57
2023/08/07 08:47:59;;;;;;;8.48;3.58;;;17.70;99.90;;;;;;5121823;27;20062;-57
2023/08/07 08:50:26;;;;;;;8.05;2.28;;;17.90;99.90;;;;;;5116253;27;20055;-57
2023/08/07 08:52:55;;;;;;;10.90;2.50;;;18.10;99.90;;;;;;5110945;27;20089;-57
2023/08/07 08:55:26;;;;;;;7.20;2.75;;;18.00;99.90;;;;;;5118468;27;20492;-58
2023/08/07 08:57:56;;;;;;;8.65;3.42;;;18.20;99.90;;;;;;5090071;27;20435;-58
2023/08/07 09:00:25;;;;;;;10.38;3.80;;;18.80;99.90;;;;;;5114329;27;20416;-57
2023/08/07 09:02:52;;;;;;;9.35;2.65;;;18.90;99.90;;;;;;5097069;27;20070;-57
2023/08/07 09:05:23;;;;;;;6.25;2.50;;;19.60;99.90;;;;;;5110428;27;20086;-58
2023/08/07 09:07:49;;;;;;;7.30;2.28;;;19.60;99.90;;;;;;5110990;27;20162;-57
2023/08/07 09:10:16;;;;;;;7.40;2.35;;;18.80;99.90;;;;;;5116205;27;20059;-58
2023/08/07 09:12:52;;;;;;;4.68;2.05;;;18.50;99.90;;;;;;5107200;27;20510;-57
2023/08/07 09:17:46;;;;;;;8.88;1.85;;;18.90;99.90;;;;;;5111361;27;20101;-56
2023/08/07 09:20:13;;;;;;;6.38;2.13;;;19.20;99.90;;;;;;5109574;27;20058;-57
2023/08/07 09:22:42;;;;;;;9.27;3.00;;;19.30;99.90;;;;;;5093624;27;20834;-57
2023/08/07 09:25:09;;;;;;;7.85;2.03;;;19.40;99.90;;;;;;5113266;27;20381;-56
2023/08/07 09:27:39;;;;;;;5.72;1.92;;;19.40;99.90;;;;;;5119875;27;20055;-57
2023/08/07 09:30:10;;;;;;;9.15;2.08;;;19.30;99.90;;;;;;5121456;27;20635;-57
2023/08/07 09:32:36;;;;;;;6.75;1.85;;;19.20;99.90;;;;;;5114004;27;20047;-58
2023/08/07 09:35:04;;;;;;;5.53;1.98;;;19.90;99.90;;;;;;5100328;27;20058;-57
2023/08/07 09:37:30;;;;;;;6.05;1.75;;;20.20;99.90;;;;;;5115259;27;20091;-57
2023/08/07 09:39:57;;;;;;;8.00;2.25;;;19.70;99.90;;;;;;5126579;27;20051;-58
2023/08/07 09:42:23;;;;;;;9.40;2.13;;;18.60;99.90;;;;;;5118803;27;20050;-57
2023/08/07 09:44:50;;;;;;;7.03;1.90;;;18.70;99.90;;;;;;5122380;27;20047;-57
2023/08/07 09:47:19;;;;;;;4.68;2.08;;;19.10;99.90;;;;;;5122228;27;20051;-56
2023/08/07 09:49:45;;;;;;;6.07;2.50;;;19.20;99.90;;;;;;5098407;28;20097;-57
2023/08/07 09:52:14;;;;;;;9.38;2.38;;;18.80;99.90;;;;;;5115767;27;20256;-57
2023/08/07 09:54:40;;;;;;;9.45;2.38;;;18.90;99.90;;;;;;5108621;27;20148;-58
2023/08/07 09:57:06;;;;;;;6.32;2.17;;;19.00;99.90;;;;;;5116546;27;20471;-56
2023/08/07 09:59:35;;;;;;;12.15;2.53;;;18.70;99.90;;;;;;5112146;27;20097;-58
2023/08/07 10:02:02;;;;;;;10.30;2.28;;;18.40;99.90;;;;;;5120547;27;20134;-60
2023/08/07 10:04:28;;;;;;;7.32;2.33;;;18.20;99.90;;;;;;5119179;27;20415;-57
2023/08/07 10:06:55;;;;;;;7.15;1.70;;;18.70;99.90;;;;;;5110288;27;20124;-56
2023/08/07 10:09:26;;;;;;;5.50;1.35;;;19.60;99.90;;;;;;5114501;27;20593;-57
2023/08/07 10:11:52;;;;;;;6.80;2.38;;;18.60;99.90;;;;;;5108893;27;20063;-56
2023/08/07 10:14:18;;;;;;;4.55;2.03;;;18.50;99.90;;;;;;5118680;27;20051;-57
2023/08/07 10:16:45;;;;;;;7.93;2.25;;;18.40;99.90;;;;;;5101891;27;20113;-56
2023/08/07 10:19:11;;;;;;;5.90;2.10;;;18.20;99.90;;;;;;5110446;28;20081;-56
2023/08/07 10:21:39;;;;;;;5.82;2.15;;;18.10;99.90;;;;;;5084763;27;20051;-57
2023/08/07 10:24:06;;;;;;;7.30;2.65;;;17.90;99.90;;;;;;5108105;27;20048;-57
2023/08/07 10:26:34;;;;;;;6.93;2.50;;;18.20;99.90;;;;;;5112925;27;20062;-58
2023/08/07 10:29:04;;;;;;;4.07;2.58;;;18.20;99.90;;;;;;5093634;28;20496;-56
2023/08/07 10:31:31;;;;;;;9.13;2.47;;;18.30;99.90;;;;;;5114087;27;20745;-57
2023/08/07 10:33:58;;;;;;;6.63;2.65;;;18.90;99.90;;;;;;5117254;27;20055;-58
2023/08/07 10:36:31;;;;;;;6.45;2.20;;;19.50;99.90;;;;;;5120938;27;20055;-57
2023/08/07 10:39:16;;;;;;;6.97;2.85;;;19.20;99.90;;;;;;5113265;27;20577;-57
2023/08/07 10:41:46;;;;;;;5.60;2.22;;;18.50;99.90;;;;;;5072930;27;1124613;-58
2023/08/07 10:46:56;;;;;;;11.05;2.80;;;19.00;99.90;;;;;;5105000;27;20135;-57
2023/08/07 10:49:34;;;;;;;8.93;2.67;;;19.00;99.90;;;;;;5118567;27;20064;-57
2023/08/07 10:52:17;;;;;;;9.98;2.85;;;18.80;99.90;;;;;;5095234;27;20062;-58
2023/08/07 10:54:49;;;;;;;17.27;3.88;;;18.80;99.90;;;;;;5104448;27;20119;-57
2023/08/07 10:57:17;;;;;;;13.85;3.30;;;19.00;99.90;;;;;;5094533;27;20067;-57
2023/08/07 10:59:56;;;;;;;8.40;2.70;;;18.50;99.90;;;;;;5119357;27;20123;-57
2023/08/07 11:02:25;;;;;;;7.63;2.08;;;18.30;99.90;;;;;;5122067;27;20058;-57
2023/08/07 11:04:52;;;;;;;7.95;2.10;;;17.80;99.90;;;;;;5123011;27;20503;-58
2023/08/07 11:07:23;;;;;;;6.13;1.85;;;18.20;99.90;;;;;;5121883;27;20077;-57
2023/08/07 11:09:49;;;;;;;9.20;3.08;;;18.80;99.90;;;;;;5093274;27;20729;-58
2023/08/07 11:12:17;;;;;;;5.55;1.85;;;18.50;99.90;;;;;;5102631;28;20054;-57
2023/08/07 11:14:43;;;;;;;5.28;1.98;;;18.50;99.90;;;;;;5103807;27;20047;-57
2023/08/07 11:17:10;;;;;;;10.18;1.80;;;19.00;99.90;;;;;;5124891;27;20055;-56
2023/08/07 11:19:35;;;;;;;5.85;1.75;;;19.50;99.90;;;;;;5103025;27;20088;-56
2023/08/07 11:22:01;;;;;;;4.93;1.77;;;19.80;99.90;;;;;;5125165;27;20081;-57
2023/08/07 11:24:27;;;;;;;4.32;1.42;;;19.90;99.90;;;;;;5110376;27;20112;-56
2023/08/07 11:26:56;;;;;;;5.57;1.80;;;19.50;99.90;;;;;;5122189;27;20054;-57
2023/08/07 11:29:24;;;;;;;2.60;1.30;;;19.10;99.90;;;;;;5101695;27;20062;-56
2023/08/07 11:31:53;;;;;;;5.72;2.10;;;18.90;99.90;;;;;;5099620;27;20058;-56
2023/08/07 11:36:48;;;;;;;4.60;1.30;;;18.20;99.90;;;;;;5121125;27;20123;-57
2023/08/07 11:39:16;;;;;;;11.77;2.08;;;18.00;99.90;;;;;;5091188;28;20458;-56
2023/08/07 11:41:42;;;;;;;4.80;2.28;;;17.80;99.90;;;;;;5120840;27;20055;-57
2023/08/07 11:44:08;;;;;;;3.50;1.50;;;17.40;99.90;;;;;;5125164;27;20506;-57
2023/08/07 11:46:34;;;;;;;5.40;1.90;;;16.90;99.90;;;;;;5121769;27;20910;-58
2023/08/07 11:49:00;;;;;;;5.88;2.17;;;17.20;99.90;;;;;;5124148;27;20103;-57
2023/08/07 11:51:28;;;;;;;5.03;2.00;;;17.10;99.90;;;;;;5123476;27;20055;-56
2023/08/07 11:53:56;;;;;;;15.75;2.17;;;17.20;99.90;;;;;;5122940;27;20059;-56
2023/08/07 11:56:24;;;;;;;4.53;2.00;;;17.40;99.90;;;;;;5124233;27;20047;-58
2023/08/07 11:58:53;;;;;;;4.40;1.35;;;17.60;99.90;;;;;;5122180;27;20063;-57
2023/08/07 12:04:09;;;;;;;4.38;1.48;;;17.90;99.90;;;;;;5121008;27;20395;-57
2023/08/07 12:06:35;;;;;;;6.85;2.05;;;17.80;99.90;;;;;;5119685;27;20119;-57
2023/08/07 12:09:02;;;;;;;3.03;1.30;;;18.10;99.90;;;;;;5121406;27;20065;-57
2023/08/07 12:11:30;;;;;;;2.85;1.30;;;17.80;99.90;;;;;;5118155;27;20059;-57
2023/08/07 12:13:55;;;;;;;1.85;1.48;;;18.00;99.90;;;;;;5099960;28;20051;-56
2023/08/07 12:16:24;;;;;;;4.47;1.35;;;18.30;99.90;;;;;;5116164;27;20054;-56
2023/08/07 12:18:51;;;;;;;4.50;1.63;;;18.40;99.90;;;;;;5117646;27;20065;-56
2023/08/07 12:21:26;;;;;;;5.20;1.58;;;18.60;99.90;;;;;;5115827;27;20544;-56
2023/08/07 12:23:55;;;;;;;5.47;2.03;;;18.30;99.90;;;;;;5117824;27;20058;-56
2023/08/07 12:26:24;;;;;;;6.70;1.52;;;17.50;99.90;;;;;;5114898;27;20150;-56
2023/08/07 12:28:50;;;;;;;3.80;1.30;;;17.40;99.90;;;;;;5116963;27;20058;-55
2023/08/07 12:31:17;;;;;;;2.95;1.65;;;17.50;99.90;;;;;;5117829;27;20050;-56
2023/08/07 12:33:43;;;;;;;2.13;1.30;;;17.30;99.90;;;;;;5099152;27;20112;-56
2023/08/07 12:36:10;;;;;;;3.15;2.05;;;17.50;99.90;;;;;;5102242;27;20460;-57
2023/08/07 12:38:36;;;;;;;4.68;1.67;;;17.80;99.90;;;;;;5094695;27;20083;-57
2023/08/07 12:41:03;;;;;;;3.47;1.70;;;18.30;99.90;;;;;;5118430;27;20138;-57
2023/08/07 12:43:28;;;;;;;5.57;1.63;;;18.70;99.90;;;;;;5096592;27;20060;-57
2023/08/07 12:45:54;;;;;;;5.95;1.95;;;18.70;99.90;;;;;;5096500;27;20071;-57
2023/08/07 12:48:26;;;;;;;2.50;1.55;;;19.40;99.90;;;;;;5119989;27;20054;-58
2023/08/07 12:50:51;;;;;;;4.43;1.80;;;20.10;99.90;;;;;;5120245;27;20058;-57
2023/08/07 12:53:17;;;;;;;7.72;2.25;;;23.50;99.90;;;;;;5121425;27;20063;-56
2023/08/07 12:55:43;;;;;;;6.32;1.90;;;24.20;99.90;;;;;;5115483;27;20577;-55
2023/08/07 12:58:08;;;;;;;3.42;1.13;;;25.70;99.90;;;;;;5118409;27;20421;-56
2023/08/07 13:00:34;;;;;;;5.75;1.90;;;25.00;99.90;;;;;;5081728;27;20154;-57
2023/08/07 13:03:00;;;;;;;7.07;1.52;;;25.90;99.90;;;;;;5122018;27;20058;-57
2023/08/07 13:05:29;;;;;;;4.70;2.17;;;25.10;99.90;;;;;;5115693;27;20112;-57